Time;durP1;ratioP1;P1;durP2;ratioP2;P2;SDS_P1;SDS_P2;PMS_P1;PMS_P2;Temp;Humidity;BMP_temperature;BMP_pressure;BME280_temperature;BME280_humidity;BME280_pressure;Samples;Min_cycle;Max_cycle;Signal;HPM_P1;HPM_P2
2022/10/23 00:00:11;;;;;;;7.20;1.70;;;;;;;;;;5035733;28;20064;-61
2022/10/23 00:02:37;;;;;;;7.80;2.03;;;;;;;;;;5035457;28;20034;-61
2022/10/23 00:05:04;;;;;;;7.30;2.40;;;;;;;;;;5035361;28;20511;-61
2022/10/23 00:07:30;;;;;;;7.57;2.40;;;;;;;;;;5035548;28;20087;-61
2022/10/23 00:09:56;;;;;;;8.55;2.40;;;;;;;;;;5034770;28;20036;-61
2022/10/23 00:12:22;;;;;;;9.38;2.30;;;;;;;;;;5035168;28;20042;-61
2022/10/23 00:14:48;;;;;;;10.25;2.63;;;;;;;;;;5035108;28;20537;-61
2022/10/23 00:17:14;;;;;;;11.98;2.85;;;;;;;;;;5035241;28;20083;-61
2022/10/23 00:19:40;;;;;;;4.53;1.95;;;;;;;;;;5034887;28;20026;-61
2022/10/23 00:22:07;;;;;;;14.90;2.42;;;;;;;;;;5035174;28;20044;-61
2022/10/23 00:24:33;;;;;;;7.78;2.42;;;;;;;;;;5034840;28;20393;-61
2022/10/23 00:26:59;;;;;;;7.65;2.50;;;;;;;;;;5035197;28;20030;-61
2022/10/23 00:29:27;;;;;;;7.68;2.42;;;;;;;;;;5035073;28;20025;-61
2022/10/23 00:31:54;;;;;;;7.95;2.38;;;;;;;;;;5034892;28;20076;-61
2022/10/23 00:34:20;;;;;;;9.25;2.38;;;;;;;;;;5033796;28;20548;-61
2022/10/23 00:36:46;;;;;;;9.77;2.63;;;;;;;;;;5034946;28;20033;-61
2022/10/23 00:39:12;;;;;;;6.55;2.25;;;;;;;;;;5034467;28;20395;-61
2022/10/23 00:41:38;;;;;;;4.78;2.33;;;;;;;;;;5034492;28;20359;-61
2022/10/23 00:44:09;;;;;;;11.20;2.72;;;;;;;;;;5033495;28;20030;-61
2022/10/23 00:46:37;;;;;;;9.45;2.45;;;;;;;;;;5033383;28;20030;-61
2022/10/23 00:49:04;;;;;;;5.18;2.00;;;;;;;;;;5034513;28;20013;-61
2022/10/23 00:51:33;;;;;;;5.03;2.00;;;;;;;;;;5034565;28;20112;-61
2022/10/23 00:54:00;;;;;;;6.72;2.65;;;;;;;;;;5034665;28;20041;-61
2022/10/23 00:56:26;;;;;;;6.00;2.00;;;;;;;;;;5033242;28;20082;-61
2022/10/23 00:58:52;;;;;;;5.05;2.20;;;;;;;;;;5034535;28;20052;-61
2022/10/23 01:01:20;;;;;;;9.38;2.42;;;;;;;;;;5034484;28;20500;-61
2022/10/23 01:03:47;;;;;;;10.15;2.20;;;;;;;;;;5034037;28;20120;-61
2022/10/23 01:06:19;;;;;;;7.30;2.45;;;;;;;;;;5034615;28;20205;-61
2022/10/23 01:08:53;;;;;;;13.90;2.63;;;;;;;;;;5032704;28;20126;-61
2022/10/23 01:11:28;;;;;;;8.70;2.38;;;;;;;;;;5032998;28;20053;-61
2022/10/23 01:14:02;;;;;;;6.18;2.47;;;;;;;;;;5032763;28;20044;-61
2022/10/23 01:16:29;;;;;;;7.32;2.22;;;;;;;;;;5032648;28;20033;-61
2022/10/23 01:18:55;;;;;;;11.60;2.40;;;;;;;;;;5032629;28;20167;-61
2022/10/23 01:21:24;;;;;;;6.53;2.45;;;;;;;;;;5034192;28;20042;-61
2022/10/23 01:23:53;;;;;;;5.13;2.08;;;;;;;;;;5033878;28;20104;-61
2022/10/23 01:26:38;;;;;;;10.90;3.35;;;;;;;;;;5033983;28;20034;-61
2022/10/23 01:29:18;;;;;;;7.97;2.35;;;;;;;;;;5032790;28;20029;-60
2022/10/23 01:31:47;;;;;;;10.50;3.00;;;;;;;;;;5033957;28;20480;-61
2022/10/23 01:34:15;;;;;;;14.02;2.60;;;;;;;;;;5032342;28;20075;-61
2022/10/23 01:36:46;;;;;;;10.05;2.72;;;;;;;;;;5032249;28;20033;-61
2022/10/23 01:39:15;;;;;;;7.53;2.33;;;;;;;;;;5032268;28;20032;-61
2022/10/23 01:41:48;;;;;;;5.35;2.33;;;;;;;;;;5032007;28;20466;-61
2022/10/23 01:44:23;;;;;;;6.60;2.30;;;;;;;;;;5031314;28;20018;-61
2022/10/23 01:46:50;;;;;;;6.00;3.10;;;;;;;;;;5032430;28;20021;-61
2022/10/23 01:49:17;;;;;;;5.28;2.25;;;;;;;;;;5031881;28;20401;-61
2022/10/23 01:51:46;;;;;;;9.68;2.85;;;;;;;;;;5031716;28;20037;-61
2022/10/23 01:54:13;;;;;;;6.75;2.63;;;;;;;;;;5032932;28;20026;-61
2022/10/23 01:56:43;;;;;;;8.70;2.83;;;;;;;;;;5031586;28;20028;-61
2022/10/23 01:59:12;;;;;;;8.27;3.22;;;;;;;;;;5031500;28;20521;-61
2022/10/23 02:01:40;;;;;;;8.98;3.70;;;;;;;;;;5031454;28;20068;-61
2022/10/23 02:04:08;;;;;;;9.48;3.03;;;;;;;;;;5033243;28;20045;-61
2022/10/23 02:06:34;;;;;;;5.40;2.88;;;;;;;;;;5031869;28;20064;-61
2022/10/23 02:09:00;;;;;;;8.77;2.78;;;;;;;;;;5032869;28;20043;-61
2022/10/23 02:11:27;;;;;;;8.07;2.58;;;;;;;;;;5031549;28;20041;-61
2022/10/23 02:13:59;;;;;;;10.10;2.85;;;;;;;;;;5030995;28;20037;-61
2022/10/23 02:16:30;;;;;;;8.30;2.95;;;;;;;;;;5031343;28;20548;-61
2022/10/23 02:19:05;;;;;;;9.45;2.45;;;;;;;;;;5031270;28;20025;-61
2022/10/23 02:21:37;;;;;;;10.63;2.92;;;;;;;;;;5031468;28;20080;-61
2022/10/23 02:24:05;;;;;;;6.10;2.63;;;;;;;;;;5031025;28;20486;-61
2022/10/23 02:26:52;;;;;;;11.05;2.72;;;;;;;;;;5031069;28;20413;-61
2022/10/23 02:29:26;;;;;;;11.80;3.08;;;;;;;;;;5019034;28;20075;-61
2022/10/23 02:31:52;;;;;;;12.55;2.55;;;;;;;;;;5030445;28;20068;-61
2022/10/23 02:34:19;;;;;;;11.38;2.55;;;;;;;;;;5030208;28;20064;-61
2022/10/23 02:36:45;;;;;;;11.85;3.22;;;;;;;;;;5031307;28;20053;-61
2022/10/23 02:39:11;;;;;;;12.10;2.65;;;;;;;;;;5015075;28;20021;-61
2022/10/23 02:41:46;;;;;;;9.30;2.95;;;;;;;;;;5030927;28;20025;-61
2022/10/23 02:44:15;;;;;;;9.65;1.98;;;;;;;;;;5031036;28;20104;-61
2022/10/23 02:46:46;;;;;;;7.50;2.20;;;;;;;;;;5030874;28;20036;-61
2022/10/23 02:49:24;;;;;;;7.60;2.08;;;;;;;;;;5031286;28;20022;-61
2022/10/23 02:51:51;;;;;;;8.50;2.10;;;;;;;;;;5031230;28;20038;-61
2022/10/23 02:54:21;;;;;;;13.60;3.40;;;;;;;;;;5031506;28;20121;-61
2022/10/23 02:56:54;;;;;;;10.38;2.38;;;;;;;;;;5032535;28;20060;-61
2022/10/23 02:59:31;;;;;;;9.57;2.33;;;;;;;;;;5035126;28;20029;-61
2022/10/23 03:02:02;;;;;;;12.18;2.22;;;;;;;;;;5034782;28;20485;-61
2022/10/23 03:04:29;;;;;;;9.60;2.85;;;;;;;;;;5035282;28;20040;-61
2022/10/23 03:06:55;;;;;;;6.95;1.75;;;;;;;;;;5035064;28;20037;-61
2022/10/23 03:09:22;;;;;;;5.53;1.60;;;;;;;;;;5036241;28;20033;-61
2022/10/23 03:11:49;;;;;;;7.80;1.60;;;;;;;;;;5033930;28;20084;-61
2022/10/23 03:14:15;;;;;;;4.20;1.30;;;;;;;;;;5034875;28;20116;-61
2022/10/23 03:16:41;;;;;;;7.30;1.50;;;;;;;;;;5035299;28;20432;-61
2022/10/23 03:19:08;;;;;;;6.15;1.10;;;;;;;;;;5034654;28;20363;-61
2022/10/23 03:21:34;;;;;;;4.30;1.20;;;;;;;;;;5018309;28;20068;-60
2022/10/23 03:24:02;;;;;;;5.82;1.02;;;;;;;;;;5035457;28;20392;-60
2022/10/23 03:26:34;;;;;;;3.53;1.00;;;;;;;;;;5035847;28;20040;-61
2022/10/23 03:29:00;;;;;;;4.15;1.17;;;;;;;;;;5034411;28;20269;-61
2022/10/23 03:31:27;;;;;;;4.65;1.02;;;;;;;;;;5035815;28;20014;-61
2022/10/23 03:33:57;;;;;;;4.18;1.00;;;;;;;;;;5034666;28;20033;-61
2022/10/23 03:36:23;;;;;;;2.00;0.90;;;;;;;;;;5034773;28;20104;-61
2022/10/23 03:38:49;;;;;;;2.88;0.93;;;;;;;;;;5034125;28;20390;-61
2022/10/23 03:41:15;;;;;;;4.60;0.90;;;;;;;;;;5034156;28;20109;-61
2022/10/23 03:43:41;;;;;;;5.63;1.55;;;;;;;;;;5035543;28;20030;-61
2022/10/23 03:46:11;;;;;;;10.80;0.80;;;;;;;;;;5035214;28;20021;-61
2022/10/23 03:48:38;;;;;;;6.53;0.93;;;;;;;;;;5035517;28;20052;-61
2022/10/23 03:51:05;;;;;;;5.72;1.00;;;;;;;;;;5034077;28;20420;-61
2022/10/23 03:53:31;;;;;;;8.25;0.98;;;;;;;;;;5035708;28;20044;-61
2022/10/23 03:56:01;;;;;;;3.58;0.98;;;;;;;;;;5033927;28;20116;-61
2022/10/23 03:58:27;;;;;;;3.28;0.98;;;;;;;;;;5035382;28;20021;-61
2022/10/23 04:00:53;;;;;;;2.90;0.73;;;;;;;;;;5028934;28;20438;-61
2022/10/23 04:03:19;;;;;;;4.35;0.90;;;;;;;;;;5030365;28;20029;-61
2022/10/23 04:05:46;;;;;;;7.35;0.80;;;;;;;;;;5021615;28;20026;-61
2022/10/23 04:08:12;;;;;;;4.82;1.10;;;;;;;;;;5019355;28;20037;-61
2022/10/23 04:10:38;;;;;;;3.53;1.02;;;;;;;;;;5021836;28;20049;-61
2022/10/23 04:13:04;;;;;;;9.10;1.10;;;;;;;;;;5022812;28;20069;-61
2022/10/23 04:15:34;;;;;;;3.88;0.95;;;;;;;;;;5020921;28;20045;-61
2022/10/23 04:18:01;;;;;;;6.63;0.90;;;;;;;;;;5033498;28;20033;-61
2022/10/23 04:20:29;;;;;;;9.40;1.20;;;;;;;;;;5016586;28;20017;-61
2022/10/23 04:22:59;;;;;;;7.25;1.00;;;;;;;;;;5029308;28;20030;-60
2022/10/23 04:25:25;;;;;;;5.00;0.90;;;;;;;;;;5033897;28;20030;-61
2022/10/23 04:27:51;;;;;;;6.95;0.80;;;;;;;;;;5033457;28;20088;-61
2022/10/23 04:30:18;;;;;;;5.07;0.80;;;;;;;;;;5032853;28;20033;-61
2022/10/23 04:32:45;;;;;;;3.40;0.82;;;;;;;;;;5033748;28;20049;-61
2022/10/23 04:35:11;;;;;;;5.57;1.25;;;;;;;;;;5033412;28;20116;-61
2022/10/23 04:37:37;;;;;;;4.25;0.90;;;;;;;;;;5033874;28;20460;-61
2022/10/23 04:40:05;;;;;;;4.88;0.90;;;;;;;;;;5033433;28;20029;-60
2022/10/23 04:42:34;;;;;;;4.68;0.90;;;;;;;;;;5029961;28;20045;-61
2022/10/23 04:45:02;;;;;;;5.47;0.82;;;;;;;;;;5033201;28;20037;-61
2022/10/23 04:47:28;;;;;;;4.18;0.82;;;;;;;;;;5033635;28;20045;-61
2022/10/23 04:49:57;;;;;;;3.78;0.80;;;;;;;;;;5034717;28;20100;-61
2022/10/23 04:52:56;;;;;;;3.38;0.60;;;;;;;;;;5014353;28;20125;-61
2022/10/23 04:55:49;;;;;;;9.23;1.77;;;;;;;;;;5019268;28;20553;-61
2022/10/23 04:58:23;;;;;;;3.97;1.00;;;;;;;;;;5032254;28;20037;-61
2022/10/23 05:00:50;;;;;;;2.90;0.63;;;;;;;;;;5032144;28;20073;-61
2022/10/23 05:03:23;;;;;;;4.18;1.10;;;;;;;;;;5032074;28;20033;-61
2022/10/23 05:05:51;;;;;;;6.15;1.35;;;;;;;;;;5032102;28;20029;-61
2022/10/23 05:08:27;;;;;;;7.75;0.85;;;;;;;;;;5032351;28;20140;-61
2022/10/23 05:11:19;;;;;;;1.83;0.70;;;;;;;;;;5021971;28;20418;-61
2022/10/23 05:13:48;;;;;;;7.00;1.40;;;;;;;;;;5028396;28;20042;-61
2022/10/23 05:16:24;;;;;;;11.82;1.27;;;;;;;;;;5028571;28;20033;-61
2022/10/23 05:18:50;;;;;;;5.50;1.00;;;;;;;;;;5022405;28;20051;-60
2022/10/23 05:21:21;;;;;;;2.42;0.85;;;;;;;;;;5015026;28;20021;-60
2022/10/23 05:23:49;;;;;;;6.10;1.02;;;;;;;;;;5015364;28;20076;-61
2022/10/23 05:26:15;;;;;;;6.05;0.77;;;;;;;;;;5006529;28;20033;-61
2022/10/23 05:28:44;;;;;;;2.30;0.80;;;;;;;;;;5016056;28;20041;-61
2022/10/23 05:31:15;;;;;;;3.90;0.75;;;;;;;;;;4988565;28;20100;-61
2022/10/23 05:33:47;;;;;;;2.15;0.73;;;;;;;;;;4975616;28;20125;-61
2022/10/23 05:36:14;;;;;;;2.38;0.70;;;;;;;;;;4975433;28;20410;-60
2022/10/23 05:38:42;;;;;;;3.28;0.68;;;;;;;;;;4992105;28;21215;-61
2022/10/23 05:41:15;;;;;;;6.25;0.90;;;;;;;;;;4974790;28;20030;-61
2022/10/23 05:43:42;;;;;;;4.45;0.98;;;;;;;;;;4972553;28;20035;-61
2022/10/23 05:46:28;;;;;;;6.55;0.95;;;;;;;;;;4990680;28;20073;-61
2022/10/23 05:49:12;;;;;;;11.25;1.75;;;;;;;;;;5031034;28;20122;-61
2022/10/23 05:52:10;;;;;;;9.73;1.52;;;;;;;;;;5028699;28;20124;-60
2022/10/23 05:55:01;;;;;;;7.22;1.13;;;;;;;;;;5013759;28;20025;-61
2022/10/23 05:57:46;;;;;;;3.47;1.02;;;;;;;;;;5029855;28;20044;-61
2022/10/23 06:00:14;;;;;;;5.45;1.50;;;;;;;;;;5012158;28;20045;-60
2022/10/23 06:02:41;;;;;;;7.22;0.95;;;;;;;;;;5028919;28;20075;-60
2022/10/23 06:05:20;;;;;;;5.75;1.00;;;;;;;;;;5031022;28;20038;-60
2022/10/23 06:08:16;;;;;;;8.40;1.20;;;;;;;;;;5007585;28;20041;-61
2022/10/23 06:10:43;;;;;;;9.63;1.20;;;;;;;;;;5020989;28;20115;-61
2022/10/23 06:13:11;;;;;;;7.95;1.45;;;;;;;;;;5026604;28;20086;-60
2022/10/23 06:15:37;;;;;;;7.50;1.10;;;;;;;;;;5012593;28;20025;-60
2022/10/23 06:18:08;;;;;;;12.43;1.40;;;;;;;;;;5012881;28;20028;-61
2022/10/23 06:20:39;;;;;;;6.65;1.45;;;;;;;;;;5010603;28;20445;-60
2022/10/23 06:23:11;;;;;;;8.20;0.90;;;;;;;;;;5020560;28;20041;-61
2022/10/23 06:26:01;;;;;;;5.75;1.08;;;;;;;;;;5014554;28;20441;-60
2022/10/23 06:28:39;;;;;;;5.65;0.70;;;;;;;;;;5030739;28;20060;-60
2022/10/23 06:31:06;;;;;;;5.88;1.58;;;;;;;;;;5024491;28;20039;-60
2022/10/23 06:33:32;;;;;;;8.73;0.88;;;;;;;;;;5029997;28;20473;-60
2022/10/23 06:36:02;;;;;;;4.95;1.02;;;;;;;;;;5030697;28;20072;-60
2022/10/23 06:38:35;;;;;;;5.47;0.93;;;;;;;;;;5030319;28;20025;-60
2022/10/23 06:41:03;;;;;;;5.85;1.30;;;;;;;;;;5042099;28;20405;-60
2022/10/23 06:43:34;;;;;;;6.13;1.07;;;;;;;;;;5030065;28;20043;-60
2022/10/23 06:46:12;;;;;;;9.13;2.40;;;;;;;;;;5032452;28;20425;-60
2022/10/23 06:48:57;;;;;;;9.73;1.00;;;;;;;;;;5018393;28;20401;-68
2022/10/23 06:51:28;;;;;;;8.13;0.90;;;;;;;;;;5028776;28;20041;-61
2022/10/23 06:53:55;;;;;;;5.75;1.00;;;;;;;;;;5031157;28;20025;-61
2022/10/23 06:56:53;;;;;;;7.35;1.60;;;;;;;;;;5026551;28;20057;-60
2022/10/23 06:59:32;;;;;;;10.88;1.42;;;;;;;;;;5030326;28;20064;-60
2022/10/23 07:01:59;;;;;;;5.25;1.38;;;;;;;;;;5030846;28;20029;-60
2022/10/23 07:04:26;;;;;;;6.45;0.90;;;;;;;;;;5030269;28;20027;-61
2022/10/23 07:06:56;;;;;;;3.70;1.00;;;;;;;;;;5027099;28;20571;-60
2022/10/23 07:09:27;;;;;;;8.80;1.33;;;;;;;;;;5019719;28;20061;-60
2022/10/23 07:11:53;;;;;;;6.28;1.35;;;;;;;;;;5022836;28;20532;-60
2022/10/23 07:14:26;;;;;;;9.65;1.33;;;;;;;;;;5028225;28;20033;-61
2022/10/23 07:16:52;;;;;;;10.90;1.25;;;;;;;;;;5029704;28;20022;-61
2022/10/23 07:19:19;;;;;;;3.55;0.90;;;;;;;;;;5027733;28;20014;-60
2022/10/23 07:21:54;;;;;;;10.18;1.20;;;;;;;;;;5028947;28;20366;-60
2022/10/23 07:24:35;;;;;;;4.82;1.08;;;;;;;;;;5028016;28;20030;-61
2022/10/23 07:27:04;;;;;;;8.18;1.20;;;;;;;;;;5024659;28;20028;-61
2022/10/23 07:29:30;;;;;;;8.55;1.30;;;;;;;;;;5026218;28;20038;-60
2022/10/23 07:31:57;;;;;;;3.40;1.10;;;;;;;;;;5026752;28;20089;-61
2022/10/23 07:34:42;;;;;;;5.88;0.90;;;;;;;;;;5029169;28;20504;-60
2022/10/23 07:37:22;;;;;;;6.57;1.52;;;;;;;;;;5028960;28;20029;-61
2022/10/23 07:39:48;;;;;;;8.77;1.33;;;;;;;;;;5036635;28;20025;-60
2022/10/23 07:42:14;;;;;;;5.45;1.30;;;;;;;;;;5037693;28;20040;-61
2022/10/23 07:44:41;;;;;;;9.00;1.73;;;;;;;;;;5030477;28;20069;-61
2022/10/23 07:47:08;;;;;;;7.47;1.88;;;;;;;;;;5039657;28;20056;-60
2022/10/23 07:49:35;;;;;;;10.15;1.40;;;;;;;;;;5034372;28;20029;-60
2022/10/23 07:52:01;;;;;;;8.32;2.05;;;;;;;;;;5035045;28;20030;-61
2022/10/23 07:54:40;;;;;;;6.57;1.30;;;;;;;;;;5031473;28;20041;-60
2022/10/23 07:57:27;;;;;;;10.70;2.70;;;;;;;;;;5031720;28;20026;-61
2022/10/23 07:59:59;;;;;;;8.80;1.30;;;;;;;;;;5034884;28;20139;-60
2022/10/23 08:02:25;;;;;;;9.27;2.00;;;;;;;;;;5032233;28;20044;-60
2022/10/23 08:04:52;;;;;;;6.57;1.27;;;;;;;;;;5032222;28;20026;-60
2022/10/23 08:07:26;;;;;;;5.45;1.45;;;;;;;;;;5030820;28;20029;-60
2022/10/23 08:09:55;;;;;;;9.55;1.27;;;;;;;;;;5029715;28;20041;-60
2022/10/23 08:12:21;;;;;;;6.47;1.48;;;;;;;;;;5033448;28;20490;-60
2022/10/23 08:14:48;;;;;;;4.78;0.88;;;;;;;;;;5036715;28;20104;-60
2022/10/23 08:17:14;;;;;;;4.97;1.20;;;;;;;;;;5033636;28;20021;-60
2022/10/23 08:20:06;;;;;;;10.57;1.60;;;;;;;;;;5027095;28;20037;-60
2022/10/23 08:22:39;;;;;;;7.15;2.20;;;;;;;;;;5015176;28;20041;-60
2022/10/23 08:25:06;;;;;;;11.40;1.90;;;;;;;;;;5015362;28;20037;-60
2022/10/23 08:27:32;;;;;;;7.10;1.27;;;;;;;;;;5029425;28;20033;-60
2022/10/23 08:29:58;;;;;;;10.85;2.08;;;;;;;;;;5013875;28;20425;-60
2022/10/23 08:32:28;;;;;;;13.32;1.75;;;;;;;;;;5010072;28;20040;-60
2022/10/23 08:34:57;;;;;;;7.50;2.00;;;;;;;;;;5028017;28;20401;-60
2022/10/23 08:37:24;;;;;;;6.80;1.33;;;;;;;;;;5014369;28;20042;-60
2022/10/23 08:39:50;;;;;;;5.22;1.73;;;;;;;;;;5036103;28;20112;-60
2022/10/23 08:42:24;;;;;;;5.17;1.20;;;;;;;;;;5025220;28;20169;-60
2022/10/23 08:44:50;;;;;;;7.50;0.95;;;;;;;;;;4997247;28;20091;-60
2022/10/23 08:47:33;;;;;;;12.52;1.63;;;;;;;;;;5011003;28;20390;-60
2022/10/23 08:50:34;;;;;;;12.63;1.95;;;;;;;;;;5032228;28;20052;-60
2022/10/23 08:53:13;;;;;;;7.05;1.05;;;;;;;;;;5030568;28;20086;-60
2022/10/23 08:55:44;;;;;;;7.45;1.17;;;;;;;;;;5027699;28;20087;-60
2022/10/23 08:58:28;;;;;;;12.68;1.33;;;;;;;;;;5033445;28;20029;-60
2022/10/23 09:00:54;;;;;;;10.48;1.30;;;;;;;;;;5037386;28;20038;-60
2022/10/23 09:03:21;;;;;;;11.20;1.50;;;;;;;;;;5048997;28;20029;-60
2022/10/23 09:06:07;;;;;;;4.55;1.00;;;;;;;;;;5035918;28;20021;-60
2022/10/23 09:08:45;;;;;;;5.10;1.15;;;;;;;;;;5034424;28;20048;-60
2022/10/23 09:11:27;;;;;;;5.00;1.10;;;;;;;;;;5030636;28;20063;-60
2022/10/23 09:13:59;;;;;;;5.78;1.77;;;;;;;;;;5032548;28;20478;-60
2022/10/23 09:16:25;;;;;;;7.70;1.48;;;;;;;;;;5037987;28;20025;-60
2022/10/23 09:18:51;;;;;;;6.18;1.20;;;;;;;;;;5036233;28;20130;-60
2022/10/23 09:21:18;;;;;;;9.30;1.13;;;;;;;;;;5034488;28;20022;-60
2022/10/23 09:23:44;;;;;;;13.02;1.35;;;;;;;;;;5035920;28;20374;-60
2022/10/23 09:26:13;;;;;;;7.05;2.08;;;;;;;;;;5029333;28;20025;-60
2022/10/23 09:28:47;;;;;;;6.93;1.08;;;;;;;;;;5034090;28;20146;-60
2022/10/23 09:31:14;;;;;;;4.57;1.25;;;;;;;;;;5024743;28;20029;-60
2022/10/23 09:33:40;;;;;;;7.90;1.20;;;;;;;;;;5029915;28;20038;-60
2022/10/23 09:36:14;;;;;;;7.25;1.00;;;;;;;;;;5034918;28;21296;-60
2022/10/23 09:38:51;;;;;;;12.38;1.20;;;;;;;;;;5029817;28;20389;-60
2022/10/23 09:41:24;;;;;;;11.30;1.27;;;;;;;;;;5032058;28;20032;-60
2022/10/23 09:44:00;;;;;;;7.65;1.10;;;;;;;;;;5029612;28;20936;-60
2022/10/23 09:46:36;;;;;;;11.02;1.70;;;;;;;;;;5030241;28;20091;-60
2022/10/23 09:49:02;;;;;;;8.40;0.90;;;;;;;;;;5032190;28;20029;-60
2022/10/23 09:51:28;;;;;;;4.85;0.88;;;;;;;;;;5030554;28;20072;-60
2022/10/23 09:53:56;;;;;;;8.73;1.45;;;;;;;;;;5030820;28;20056;-60
2022/10/23 09:56:33;;;;;;;8.38;1.35;;;;;;;;;;5031656;28;20022;-60
2022/10/23 09:59:17;;;;;;;5.90;1.10;;;;;;;;;;5030163;28;20029;-60
2022/10/23 10:01:47;;;;;;;3.17;0.95;;;;;;;;;;5028485;28;20033;-61
2022/10/23 10:04:39;;;;;;;9.80;1.73;;;;;;;;;;5029875;28;20091;-60
2022/10/23 10:07:15;;;;;;;9.05;1.17;;;;;;;;;;5024346;28;20025;-60
2022/10/23 10:09:42;;;;;;;5.35;1.23;;;;;;;;;;5027839;28;20045;-60
2022/10/23 10:12:08;;;;;;;5.88;1.30;;;;;;;;;;5026410;28;20046;-60
2022/10/23 10:15:04;;;;;;;10.23;1.30;;;;;;;;;;5021992;28;20030;-60
2022/10/23 10:17:49;;;;;;;6.10;1.20;;;;;;;;;;5021119;28;20045;-60
2022/10/23 10:20:30;;;;;;;6.05;1.50;;;;;;;;;;5023909;28;20100;-61
2022/10/23 10:22:59;;;;;;;3.03;1.02;;;;;;;;;;5031259;28;20050;-60
2022/10/23 10:25:33;;;;;;;4.75;1.35;;;;;;;;;;5032713;28;20029;-60
2022/10/23 10:28:23;;;;;;;7.75;1.65;;;;;;;;;;5030175;28;22295;-60
2022/10/23 10:30:55;;;;;;;9.82;1.52;;;;;;;;;;5016829;28;20123;-60
2022/10/23 10:33:28;;;;;;;8.52;1.60;;;;;;;;;;5026744;28;20464;-60
2022/10/23 10:35:54;;;;;;;;;;;;;;;;;;5027018;28;20038;-60
2022/10/23 10:38:40;;;;;;;8.90;1.65;;;;;;;;;;5024582;28;20325;-60
2022/10/23 10:41:22;;;;;;;6.40;1.17;;;;;;;;;;5026838;28;20046;-60
2022/10/23 10:44:08;;;;;;;7.95;2.10;;;;;;;;;;5023316;28;20041;-60
2022/10/23 10:46:40;;;;;;;10.68;1.50;;;;;;;;;;5023313;28;20040;-60
2022/10/23 10:49:11;;;;;;;11.43;1.40;;;;;;;;;;5021007;28;20045;-60
2022/10/23 10:51:40;;;;;;;6.80;1.10;;;;;;;;;;5025248;28;20033;-60
2022/10/23 10:54:15;;;;;;;8.75;1.60;;;;;;;;;;5021029;28;20033;-60
2022/10/23 10:56:42;;;;;;;6.45;1.25;;;;;;;;;;5019852;28;20036;-60
2022/10/23 10:59:20;;;;;;;3.03;1.30;;;;;;;;;;5018355;28;20021;-59
2022/10/23 11:01:50;;;;;;;8.88;1.60;;;;;;;;;;5024815;28;20823;-60
2022/10/23 11:04:39;;;;;;;13.57;1.38;;;;;;;;;;5018255;28;20029;-60
2022/10/23 11:07:07;;;;;;;6.00;1.48;;;;;;;;;;5018070;28;20029;-59
2022/10/23 11:09:33;;;;;;;6.63;1.38;;;;;;;;;;5022753;28;20566;-60
2022/10/23 11:11:59;;;;;;;8.35;1.17;;;;;;;;;;5021032;28;20046;-60
2022/10/23 11:14:27;;;;;;;8.65;1.73;;;;;;;;;;5025197;28;20048;-60
2022/10/23 11:17:01;;;;;;;11.63;1.67;;;;;;;;;;5022763;28;20034;-60
2022/10/23 11:19:35;;;;;;;22.33;7.47;;;;;;;;;;5032336;28;20029;-60
2022/10/23 11:22:09;;;;;;;12.32;4.35;;;;;;;;;;5031241;28;20036;-59
2022/10/23 11:24:54;;;;;;;10.32;4.03;;;;;;;;;;5028732;28;20622;-60
2022/10/23 11:27:21;;;;;;;11.73;2.03;;;;;;;;;;5034544;28;20080;-60
2022/10/23 11:30:10;;;;;;;15.52;2.22;;;;;;;;;;5028220;28;20025;-61
2022/10/23 11:32:55;;;;;;;20.05;5.53;;;;;;;;;;5035588;28;20120;-60
2022/10/23 11:35:44;;;;;;;7.50;2.05;;;;;;;;;;5034760;28;20080;-61
2022/10/23 11:38:18;;;;;;;9.43;2.92;;;;;;;;;;5030897;28;20116;-61
2022/10/23 11:40:49;;;;;;;11.38;1.65;;;;;;;;;;5037120;28;20048;-61
2022/10/23 11:43:25;;;;;;;9.25;1.50;;;;;;;;;;5038552;28;20041;-60
2022/10/23 11:45:51;;;;;;;9.48;1.98;;;;;;;;;;5030850;28;20045;-60
2022/10/23 11:48:44;;;;;;;9.00;2.58;;;;;;;;;;5039019;28;20141;-61
2022/10/23 11:51:26;;;;;;;3.85;1.55;;;;;;;;;;5027252;28;20124;-60
2022/10/23 11:53:53;;;;;;;9.05;1.80;;;;;;;;;;5035608;28;20112;-61
2022/10/23 11:56:19;;;;;;;9.43;1.85;;;;;;;;;;5029770;28;20132;-61
2022/10/23 11:58:46;;;;;;;6.05;1.55;;;;;;;;;;5030965;28;20087;-60
2022/10/23 12:01:23;;;;;;;11.80;2.22;;;;;;;;;;5023216;28;20040;-60
2022/10/23 12:04:07;;;;;;;7.15;2.42;;;;;;;;;;5016937;28;20108;-60
2022/10/23 12:06:44;;;;;;;6.45;1.70;;;;;;;;;;5025600;28;20060;-60
2022/10/23 12:09:29;;;;;;;8.77;2.28;;;;;;;;;;5022014;28;20180;-60
2022/10/23 12:12:04;;;;;;;12.20;1.80;;;;;;;;;;5022389;28;20054;-60
2022/10/23 12:14:30;;;;;;;6.68;2.33;;;;;;;;;;5023740;28;20095;-60
2022/10/23 12:16:56;;;;;;;12.77;2.67;;;;;;;;;;5027479;28;20490;-60
2022/10/23 12:19:24;;;;;;;6.10;2.20;;;;;;;;;;5022508;28;20037;-60
2022/10/23 12:21:51;;;;;;;7.63;2.10;;;;;;;;;;5027064;28;20030;-60
2022/10/23 12:24:21;;;;;;;6.32;1.80;;;;;;;;;;5026834;28;20028;-61
2022/10/23 12:26:53;;;;;;;7.50;2.60;;;;;;;;;;5026601;28;20511;-60
2022/10/23 12:29:31;;;;;;;10.73;2.50;;;;;;;;;;5032337;28;20023;-60
2022/10/23 12:32:00;;;;;;;9.48;2.08;;;;;;;;;;5025016;28;20292;-61
2022/10/23 12:34:32;;;;;;;7.93;1.80;;;;;;;;;;5025576;28;20632;-61
2022/10/23 12:37:17;;;;;;;11.98;2.40;;;;;;;;;;5026140;28;20029;-60
2022/10/23 12:39:51;;;;;;;8.20;1.83;;;;;;;;;;5024237;28;20057;-60
2022/10/23 12:42:21;;;;;;;6.57;2.53;;;;;;;;;;5031312;28;20106;-60
2022/10/23 12:45:01;;;;;;;10.90;2.55;;;;;;;;;;5027851;28;20858;-60
2022/10/23 12:47:28;;;;;;;10.02;2.28;;;;;;;;;;5027653;28;20414;-61
2022/10/23 12:49:54;;;;;;;8.98;2.85;;;;;;;;;;5040271;28;20041;-60
2022/10/23 12:52:23;;;;;;;4.93;1.90;;;;;;;;;;5036341;28;20034;-60
2022/10/23 12:54:49;;;;;;;8.75;1.75;;;;;;;;;;5025773;28;20420;-60
2022/10/23 12:57:26;;;;;;;7.28;2.25;;;;;;;;;;5028051;28;20036;-60
2022/10/23 13:00:09;;;;;;;4.60;1.55;;;;;;;;;;5024078;28;20059;-60
2022/10/23 13:02:35;;;;;;;10.05;2.92;;;;;;;;;;5026089;28;20524;-61
2022/10/23 13:05:06;;;;;;;9.90;1.92;;;;;;;;;;5023839;28;20045;-61
2022/10/23 13:07:34;;;;;;;7.65;2.10;;;;;;;;;;5026568;28;20551;-60
2022/10/23 13:10:01;;;;;;;6.30;1.60;;;;;;;;;;5021957;28;20048;-61
2022/10/23 13:12:50;;;;;;;10.18;1.85;;;;;;;;;;5023933;28;20120;-60
2022/10/23 13:15:17;;;;;;;10.57;3.63;;;;;;;;;;5025997;28;20370;-60
2022/10/23 13:17:45;;;;;;;6.05;1.77;;;;;;;;;;5026686;28;20725;-60
2022/10/23 13:20:33;;;;;;;5.40;1.85;;;;;;;;;;5027820;28;20025;-61
2022/10/23 13:23:17;;;;;;;12.70;4.43;;;;;;;;;;5026867;28;20048;-61
2022/10/23 13:25:52;;;;;;;5.63;1.90;;;;;;;;;;5023976;28;20277;-61
2022/10/23 13:28:23;;;;;;;7.45;1.95;;;;;;;;;;5027217;28;20087;-61
2022/10/23 13:31:07;;;;;;;6.70;1.85;;;;;;;;;;5025136;28;20111;-61
2022/10/23 13:33:37;;;;;;;9.65;1.85;;;;;;;;;;5024120;28;20436;-61
2022/10/23 13:36:12;;;;;;;8.98;1.52;;;;;;;;;;5025167;28;20394;-61
2022/10/23 13:38:39;;;;;;;9.48;2.33;;;;;;;;;;5027201;28;20105;-61
2022/10/23 13:41:13;;;;;;;12.05;2.08;;;;;;;;;;5019713;28;20480;-61
2022/10/23 13:43:40;;;;;;;20.55;3.05;;;;;;;;;;5024484;28;20032;-61
2022/10/23 13:46:13;;;;;;;17.20;2.65;;;;;;;;;;5018640;28;20048;-61
2022/10/23 13:48:39;;;;;;;17.23;2.55;;;;;;;;;;5021812;28;20041;-60
2022/10/23 13:51:12;;;;;;;16.85;2.92;;;;;;;;;;5023380;28;20378;-61
2022/10/23 13:53:38;;;;;;;18.33;3.13;;;;;;;;;;5024982;28;20026;-61
2022/10/23 13:56:04;;;;;;;18.67;2.78;;;;;;;;;;5015650;28;20022;-60
2022/10/23 13:58:31;;;;;;;14.15;2.67;;;;;;;;;;5027845;28;20100;-61
2022/10/23 14:00:57;;;;;;;17.35;3.95;;;;;;;;;;5021210;28;20036;-61
2022/10/23 14:03:23;;;;;;;17.58;2.60;;;;;;;;;;5026257;28;20052;-61
2022/10/23 14:05:50;;;;;;;21.42;3.33;;;;;;;;;;5022472;28;20029;-60
2022/10/23 14:08:16;;;;;;;18.17;3.35;;;;;;;;;;5027807;28;20040;-61
2022/10/23 14:10:42;;;;;;;22.95;3.45;;;;;;;;;;5026489;28;20042;-60
2022/10/23 14:13:08;;;;;;;13.15;3.15;;;;;;;;;;5025003;28;20038;-60
2022/10/23 14:15:34;;;;;;;16.48;3.00;;;;;;;;;;5032066;28;20500;-60
2022/10/23 14:18:00;;;;;;;13.65;2.83;;;;;;;;;;5029092;28;20034;-61
2022/10/23 14:20:27;;;;;;;16.15;2.67;;;;;;;;;;5025163;28;20430;-61
2022/10/23 14:22:53;;;;;;;15.50;3.47;;;;;;;;;;5026783;28;20063;-60
2022/10/23 14:25:19;;;;;;;15.80;2.80;;;;;;;;;;5031078;28;20033;-60
2022/10/23 14:27:45;;;;;;;19.23;3.10;;;;;;;;;;5029352;28;20036;-60
2022/10/23 14:30:11;;;;;;;14.35;2.70;;;;;;;;;;5026156;28;20036;-60
2022/10/23 14:32:37;;;;;;;17.75;2.80;;;;;;;;;;5031677;28;20087;-60
2022/10/23 14:35:04;;;;;;;9.35;2.05;;;;;;;;;;5025956;28;20382;-60
2022/10/23 14:37:30;;;;;;;27.50;3.10;;;;;;;;;;5028594;28;20374;-60
2022/10/23 14:39:57;;;;;;;27.67;3.67;;;;;;;;;;5028260;28;20145;-60
2022/10/23 14:42:23;;;;;;;17.05;3.05;;;;;;;;;;5023651;28;20033;-60
2022/10/23 14:44:49;;;;;;;17.23;3.17;;;;;;;;;;5027485;28;20120;-60
2022/10/23 14:47:18;;;;;;;16.63;3.03;;;;;;;;;;5024150;28;20574;-60
2022/10/23 14:49:46;;;;;;;22.88;3.00;;;;;;;;;;5029857;28;20053;-60
2022/10/23 14:52:12;;;;;;;22.13;2.88;;;;;;;;;;5024310;28;20033;-60
2022/10/23 14:54:38;;;;;;;19.70;3.95;;;;;;;;;;5033366;28;20373;-60
2022/10/23 14:57:04;;;;;;;22.52;4.18;;;;;;;;;;5030704;28;20079;-60
2022/10/23 14:59:30;;;;;;;15.85;2.70;;;;;;;;;;5025205;28;20378;-60
2022/10/23 15:01:56;;;;;;;21.90;2.92;;;;;;;;;;5031053;28;20029;-60
2022/10/23 15:04:22;;;;;;;20.20;2.90;;;;;;;;;;5028292;28;20446;-60